sensor_id;sensor_type;location;lat;lon;timestamp;pressure;altitude;pressure_sealevel;temperature;humidity
80500;BME280;69823;54.120;-4.710;2023-07-16T00:00:28;97840.95;;;26.80;27.42
80500;BME280;69823;54.120;-4.710;2023-07-16T00:02:53;97836.04;;;26.25;27.35
80500;BME280;69823;54.120;-4.710;2023-07-16T00:05:18;97846.21;;;26.25;27.36
80500;BME280;69823;54.120;-4.710;2023-07-16T00:07:44;97854.07;;;26.17;27.38
80500;BME280;69823;54.120;-4.710;2023-07-16T00:10:10;97834.22;;;26.14;27.58
80500;BME280;69823;54.120;-4.710;2023-07-16T00:12:35;97857.25;;;26.23;27.53
80500;BME280;69823;54.120;-4.710;2023-07-16T00:15:00;97857.93;;;26.29;27.72
80500;BME280;69823;54.120;-4.710;2023-07-16T00:17:26;97858.41;;;26.09;27.69
80500;BME280;69823;54.120;-4.710;2023-07-16T00:19:51;97864.08;;;26.12;27.69
80500;BME280;69823;54.120;-4.710;2023-07-16T00:22:17;97867.30;;;26.30;27.29
80500;BME280;69823;54.120;-4.710;2023-07-16T00:24:42;97864.55;;;26.23;27.10
80500;BME280;69823;54.120;-4.710;2023-07-16T00:27:08;97877.97;;;26.30;27.28
80500;BME280;69823;54.120;-4.710;2023-07-16T00:29:34;97868.79;;;26.31;26.64
80500;BME280;69823;54.120;-4.710;2023-07-16T00:31:59;97887.71;;;26.22;27.06
80500;BME280;69823;54.120;-4.710;2023-07-16T00:34:25;97886.16;;;26.06;27.54
80500;BME280;69823;54.120;-4.710;2023-07-16T00:36:51;97892.09;;;26.11;27.42
80500;BME280;69823;54.120;-4.710;2023-07-16T00:39:17;97893.65;;;26.09;27.53
80500;BME280;69823;54.120;-4.710;2023-07-16T00:41:42;97897.62;;;26.32;27.25
80500;BME280;69823;54.120;-4.710;2023-07-16T00:44:08;97907.42;;;26.18;27.42
80500;BME280;69823;54.120;-4.710;2023-07-16T00:46:34;97918.95;;;26.04;27.66
80500;BME280;69823;54.120;-4.710;2023-07-16T00:48:59;97912.02;;;26.17;27.38
80500;BME280;69823;54.120;-4.710;2023-07-16T00:51:26;97913.29;;;26.02;27.53
80500;BME280;69823;54.120;-4.710;2023-07-16T00:53:50;97915.79;;;25.98;27.54
80500;BME280;69823;54.120;-4.710;2023-07-16T00:56:17;97920.53;;;26.17;27.71
80500;BME280;69823;54.120;-4.710;2023-07-16T00:58:42;97925.84;;;26.25;27.59
80500;BME280;69823;54.120;-4.710;2023-07-16T01:01:07;97929.11;;;25.99;27.52
80500;BME280;69823;54.120;-4.710;2023-07-16T01:03:33;97932.19;;;26.20;27.56
80500;BME280;69823;54.120;-4.710;2023-07-16T01:06:06;97938.28;;;25.99;27.51
80500;BME280;69823;54.120;-4.710;2023-07-16T01:08:30;97939.25;;;26.02;27.51
80500;BME280;69823;54.120;-4.710;2023-07-16T01:10:50;97943.92;;;26.09;27.39
80500;BME280;69823;54.120;-4.710;2023-07-16T01:13:16;97939.53;;;26.20;27.31
80500;BME280;69823;54.120;-4.710;2023-07-16T01:15:42;97954.70;;;26.19;27.46
80500;BME280;69823;54.120;-4.710;2023-07-16T01:18:07;97954.18;;;25.85;27.60
80500;BME280;69823;54.120;-4.710;2023-07-16T01:20:33;97959.21;;;26.21;27.55
80500;BME280;69823;54.120;-4.710;2023-07-16T01:23:10;97963.48;;;25.97;27.46
80500;BME280;69823;54.120;-4.710;2023-07-16T01:25:39;97960.43;;;26.10;27.61
80500;BME280;69823;54.120;-4.710;2023-07-16T01:28:00;97960.45;;;25.78;27.65
80500;BME280;69823;54.120;-4.710;2023-07-16T01:30:18;97976.59;;;25.77;27.60
80500;BME280;69823;54.120;-4.710;2023-07-16T01:32:42;97973.67;;;25.88;27.40
80500;BME280;69823;54.120;-4.710;2023-07-16T01:35:08;97984.72;;;25.92;27.64
80500;BME280;69823;54.120;-4.710;2023-07-16T01:37:33;97984.18;;;25.95;27.64
80500;BME280;69823;54.120;-4.710;2023-07-16T01:39:59;97997.60;;;26.47;27.26
80500;BME280;69823;54.120;-4.710;2023-07-16T01:42:25;98002.70;;;25.88;27.16
80500;BME280;69823;54.120;-4.710;2023-07-16T01:44:50;97999.42;;;25.92;27.41
80500;BME280;69823;54.120;-4.710;2023-07-16T01:47:23;98007.89;;;26.26;27.56
80500;BME280;69823;54.120;-4.710;2023-07-16T01:49:42;98013.17;;;26.12;27.37
80500;BME280;69823;54.120;-4.710;2023-07-16T01:52:08;98017.46;;;25.98;27.52
80500;BME280;69823;54.120;-4.710;2023-07-16T01:54:33;98028.20;;;25.96;27.27
80500;BME280;69823;54.120;-4.710;2023-07-16T01:56:59;98029.73;;;26.46;27.30
80500;BME280;69823;54.120;-4.710;2023-07-16T01:59:25;98036.13;;;26.00;27.20
80500;BME280;69823;54.120;-4.710;2023-07-16T02:01:50;98033.36;;;26.53;27.06
80500;BME280;69823;54.120;-4.710;2023-07-16T02:04:16;98040.27;;;26.11;27.36
80500;BME280;69823;54.120;-4.710;2023-07-16T02:06:42;98040.20;;;25.99;27.09
80500;BME280;69823;54.120;-4.710;2023-07-16T02:09:08;98052.25;;;26.06;26.82
80500;BME280;69823;54.120;-4.710;2023-07-16T02:11:33;98040.34;;;25.97;27.46
80500;BME280;69823;54.120;-4.710;2023-07-16T02:13:59;98051.31;;;26.27;27.39
80500;BME280;69823;54.120;-4.710;2023-07-16T02:16:25;98055.05;;;26.17;27.08
80500;BME280;69823;54.120;-4.710;2023-07-16T02:18:51;98054.96;;;26.12;27.13
80500;BME280;69823;54.120;-4.710;2023-07-16T02:21:17;98053.00;;;25.98;27.21
80500;BME280;69823;54.120;-4.710;2023-07-16T02:23:42;98060.51;;;26.54;26.89
80500;BME280;69823;54.120;-4.710;2023-07-16T02:26:08;98059.78;;;26.18;26.77
80500;BME280;69823;54.120;-4.710;2023-07-16T02:28:34;98064.09;;;26.37;26.75
80500;BME280;69823;54.120;-4.710;2023-07-16T02:31:00;98060.86;;;26.09;26.68
80500;BME280;69823;54.120;-4.710;2023-07-16T02:33:25;98062.21;;;26.42;26.94
80500;BME280;69823;54.120;-4.710;2023-07-16T02:35:51;98068.00;;;26.71;26.36
80500;BME280;69823;54.120;-4.710;2023-07-16T02:38:17;98068.50;;;26.05;27.28
80500;BME280;69823;54.120;-4.710;2023-07-16T02:40:43;98068.88;;;26.11;27.45
80500;BME280;69823;54.120;-4.710;2023-07-16T02:43:08;98070.51;;;25.65;27.46
80500;BME280;69823;54.120;-4.710;2023-07-16T02:45:34;98079.96;;;26.25;26.56
80500;BME280;69823;54.120;-4.710;2023-07-16T02:48:00;98080.26;;;26.20;26.75
80500;BME280;69823;54.120;-4.710;2023-07-16T02:50:26;98081.18;;;25.76;27.30
80500;BME280;69823;54.120;-4.710;2023-07-16T02:52:51;98079.12;;;26.20;27.11
80500;BME280;69823;54.120;-4.710;2023-07-16T02:55:17;98093.31;;;26.21;27.08
80500;BME280;69823;54.120;-4.710;2023-07-16T02:57:43;98094.94;;;26.51;27.00
80500;BME280;69823;54.120;-4.710;2023-07-16T03:00:09;98097.29;;;26.09;27.26
80500;BME280;69823;54.120;-4.710;2023-07-16T03:02:34;98097.71;;;25.90;27.07
80500;BME280;69823;54.120;-4.710;2023-07-16T03:05:00;98110.18;;;26.07;27.20
80500;BME280;69823;54.120;-4.710;2023-07-16T03:07:26;98109.40;;;26.17;26.96
80500;BME280;69823;54.120;-4.710;2023-07-16T03:09:52;98113.49;;;26.23;26.75
80500;BME280;69823;54.120;-4.710;2023-07-16T03:12:17;98120.53;;;26.18;26.76
80500;BME280;69823;54.120;-4.710;2023-07-16T03:14:43;98127.74;;;26.13;27.06
80500;BME280;69823;54.120;-4.710;2023-07-16T03:17:09;98124.25;;;26.10;27.09
80500;BME280;69823;54.120;-4.710;2023-07-16T03:19:35;98125.46;;;26.07;27.12
80500;BME280;69823;54.120;-4.710;2023-07-16T03:22:00;98132.71;;;25.81;27.15
80500;BME280;69823;54.120;-4.710;2023-07-16T03:24:26;98136.80;;;26.25;26.73
80500;BME280;69823;54.120;-4.710;2023-07-16T03:26:52;98142.53;;;25.99;26.98
80500;BME280;69823;54.120;-4.710;2023-07-16T03:29:17;98147.69;;;26.05;26.81
80500;BME280;69823;54.120;-4.710;2023-07-16T03:31:43;98152.55;;;26.07;26.86
80500;BME280;69823;54.120;-4.710;2023-07-16T03:34:09;98153.04;;;26.28;27.08
80500;BME280;69823;54.120;-4.710;2023-07-16T03:36:35;98161.74;;;25.85;26.83
80500;BME280;69823;54.120;-4.710;2023-07-16T03:39:01;98157.51;;;26.19;26.65
80500;BME280;69823;54.120;-4.710;2023-07-16T03:41:26;98168.42;;;26.21;26.91
80500;BME280;69823;54.120;-4.710;2023-07-16T03:43:52;98168.82;;;26.29;26.35
80500;BME280;69823;54.120;-4.710;2023-07-16T03:46:18;98175.61;;;26.24;26.73
80500;BME280;69823;54.120;-4.710;2023-07-16T03:48:44;98181.70;;;25.87;26.92
80500;BME280;69823;54.120;-4.710;2023-07-16T03:51:09;98188.45;;;26.08;26.97
80500;BME280;69823;54.120;-4.710;2023-07-16T03:53:35;98185.53;;;26.00;26.34
80500;BME280;69823;54.120;-4.710;2023-07-16T03:56:01;98185.64;;;26.09;26.90
80500;BME280;69823;54.120;-4.710;2023-07-16T03:58:27;98184.83;;;26.12;26.86
80500;BME280;69823;54.120;-4.710;2023-07-16T04:00:52;98190.75;;;25.91;26.75
80500;BME280;69823;54.120;-4.710;2023-07-16T04:03:18;98192.87;;;25.96;26.74
80500;BME280;69823;54.120;-4.710;2023-07-16T04:05:44;98193.66;;;26.38;26.76
80500;BME280;69823;54.120;-4.710;2023-07-16T04:08:10;98194.40;;;25.88;26.70
80500;BME280;69823;54.120;-4.710;2023-07-16T04:10:35;98192.19;;;26.20;27.05
80500;BME280;69823;54.120;-4.710;2023-07-16T04:13:01;98200.62;;;26.34;26.77
80500;BME280;69823;54.120;-4.710;2023-07-16T04:15:27;98206.73;;;25.88;26.78
80500;BME280;69823;54.120;-4.710;2023-07-16T04:17:52;98208.39;;;25.83;26.83
80500;BME280;69823;54.120;-4.710;2023-07-16T04:20:18;98215.31;;;26.02;26.50
80500;BME280;69823;54.120;-4.710;2023-07-16T04:22:44;98226.32;;;26.45;26.70
80500;BME280;69823;54.120;-4.710;2023-07-16T04:25:10;98229.47;;;26.31;26.86
80500;BME280;69823;54.120;-4.710;2023-07-16T04:27:35;98232.38;;;25.88;26.42
80500;BME280;69823;54.120;-4.710;2023-07-16T04:30:01;98241.22;;;25.84;26.83
80500;BME280;69823;54.120;-4.710;2023-07-16T04:32:27;98247.24;;;26.19;26.74
80500;BME280;69823;54.120;-4.710;2023-07-16T04:34:53;98249.51;;;26.13;26.70
80500;BME280;69823;54.120;-4.710;2023-07-16T04:37:19;98247.93;;;26.16;26.76
80500;BME280;69823;54.120;-4.710;2023-07-16T04:39:44;98250.57;;;26.02;26.79
80500;BME280;69823;54.120;-4.710;2023-07-16T04:42:10;98257.96;;;26.36;26.69
80500;BME280;69823;54.120;-4.710;2023-07-16T04:44:36;98263.68;;;26.37;26.17
80500;BME280;69823;54.120;-4.710;2023-07-16T04:47:02;98267.22;;;25.81;26.75
80500;BME280;69823;54.120;-4.710;2023-07-16T04:49:27;98270.66;;;26.06;26.95
80500;BME280;69823;54.120;-4.710;2023-07-16T04:51:53;98282.27;;;25.84;26.55
80500;BME280;69823;54.120;-4.710;2023-07-16T04:54:19;98279.69;;;26.06;26.60
80500;BME280;69823;54.120;-4.710;2023-07-16T04:56:45;98290.36;;;26.05;26.75
80500;BME280;69823;54.120;-4.710;2023-07-16T04:59:10;98292.76;;;25.96;27.03
80500;BME280;69823;54.120;-4.710;2023-07-16T05:01:36;98298.51;;;26.00;26.61
80500;BME280;69823;54.120;-4.710;2023-07-16T05:04:02;98296.99;;;26.23;26.29
80500;BME280;69823;54.120;-4.710;2023-07-16T05:06:28;98300.77;;;25.86;26.94
80500;BME280;69823;54.120;-4.710;2023-07-16T05:08:53;98307.68;;;25.99;26.84
80500;BME280;69823;54.120;-4.710;2023-07-16T05:11:19;98315.71;;;25.99;26.82
80500;BME280;69823;54.120;-4.710;2023-07-16T05:13:45;98325.47;;;25.69;26.63
80500;BME280;69823;54.120;-4.710;2023-07-16T05:16:11;98333.93;;;25.59;26.92
80500;BME280;69823;54.120;-4.710;2023-07-16T05:18:36;98336.85;;;26.12;26.89
80500;BME280;69823;54.120;-4.710;2023-07-16T05:21:02;98342.07;;;25.95;26.34
80500;BME280;69823;54.120;-4.710;2023-07-16T05:23:28;98344.30;;;26.13;26.29
80500;BME280;69823;54.120;-4.710;2023-07-16T05:25:54;98351.72;;;25.97;26.93
80500;BME280;69823;54.120;-4.710;2023-07-16T05:28:19;98357.16;;;25.85;26.64
80500;BME280;69823;54.120;-4.710;2023-07-16T05:30:45;98363.72;;;25.91;27.02
80500;BME280;69823;54.120;-4.710;2023-07-16T05:33:11;98374.64;;;26.06;26.76
80500;BME280;69823;54.120;-4.710;2023-07-16T05:35:38;98374.61;;;25.73;26.86
80500;BME280;69823;54.120;-4.710;2023-07-16T05:38:02;98381.37;;;25.99;26.56
80500;BME280;69823;54.120;-4.710;2023-07-16T05:40:28;98383.92;;;25.77;26.68
80500;BME280;69823;54.120;-4.710;2023-07-16T05:42:54;98385.68;;;26.06;26.59
80500;BME280;69823;54.120;-4.710;2023-07-16T05:45:20;98390.18;;;26.06;26.76
80500;BME280;69823;54.120;-4.710;2023-07-16T05:47:45;98394.79;;;25.95;26.61
80500;BME280;69823;54.120;-4.710;2023-07-16T05:50:11;98396.43;;;25.85;26.69
80500;BME280;69823;54.120;-4.710;2023-07-16T05:52:37;98407.01;;;25.88;26.67
80500;BME280;69823;54.120;-4.710;2023-07-16T05:55:03;98411.82;;;25.86;26.40
80500;BME280;69823;54.120;-4.710;2023-07-16T05:57:28;98404.52;;;25.78;26.69
80500;BME280;69823;54.120;-4.710;2023-07-16T05:59:54;98428.36;;;26.03;26.53
80500;BME280;69823;54.120;-4.710;2023-07-16T06:02:20;98427.27;;;26.10;26.31
80500;BME280;69823;54.120;-4.710;2023-07-16T06:04:46;98431.51;;;26.02;26.79
80500;BME280;69823;54.120;-4.710;2023-07-16T06:07:12;98433.19;;;25.85;26.47
80500;BME280;69823;54.120;-4.710;2023-07-16T06:09:37;98437.68;;;25.98;26.53
80500;BME280;69823;54.120;-4.710;2023-07-16T06:12:04;98446.71;;;25.70;26.55
80500;BME280;69823;54.120;-4.710;2023-07-16T06:14:29;98454.27;;;25.92;26.78
80500;BME280;69823;54.120;-4.710;2023-07-16T06:16:54;98449.05;;;25.71;26.34
80500;BME280;69823;54.120;-4.710;2023-07-16T06:19:20;98458.95;;;25.81;26.69
80500;BME280;69823;54.120;-4.710;2023-07-16T06:21:46;98461.60;;;25.92;26.34
80500;BME280;69823;54.120;-4.710;2023-07-16T06:24:12;98471.55;;;25.83;26.47
80500;BME280;69823;54.120;-4.710;2023-07-16T06:26:37;98477.34;;;25.83;26.51
80500;BME280;69823;54.120;-4.710;2023-07-16T06:29:03;98481.49;;;25.37;26.52
80500;BME280;69823;54.120;-4.710;2023-07-16T06:31:29;98487.31;;;25.97;26.55
80500;BME280;69823;54.120;-4.710;2023-07-16T06:33:55;98486.11;;;26.04;26.53
80500;BME280;69823;54.120;-4.710;2023-07-16T06:36:21;98490.29;;;26.03;26.39
80500;BME280;69823;54.120;-4.710;2023-07-16T06:38:46;98497.05;;;25.76;26.67
80500;BME280;69823;54.120;-4.710;2023-07-16T06:41:12;98497.65;;;25.96;26.71
80500;BME280;69823;54.120;-4.710;2023-07-16T06:43:38;98493.70;;;25.97;26.32
80500;BME280;69823;54.120;-4.710;2023-07-16T06:46:03;98501.62;;;26.04;26.57
80500;BME280;69823;54.120;-4.710;2023-07-16T06:48:29;98508.60;;;25.84;26.48
80500;BME280;69823;54.120;-4.710;2023-07-16T06:50:55;98514.72;;;25.82;26.06
80500;BME280;69823;54.120;-4.710;2023-07-16T06:53:21;98514.56;;;25.61;26.43
80500;BME280;69823;54.120;-4.710;2023-07-16T06:55:47;98516.22;;;25.71;26.18
80500;BME280;69823;54.120;-4.710;2023-07-16T06:58:13;98522.70;;;25.96;26.56
80500;BME280;69823;54.120;-4.710;2023-07-16T07:00:38;98524.77;;;25.88;26.49
80500;BME280;69823;54.120;-4.710;2023-07-16T07:03:04;98528.22;;;25.88;26.29
80500;BME280;69823;54.120;-4.710;2023-07-16T07:05:29;98530.83;;;25.87;26.40
80500;BME280;69823;54.120;-4.710;2023-07-16T07:07:55;98535.55;;;25.68;26.54
80500;BME280;69823;54.120;-4.710;2023-07-16T07:10:21;98541.67;;;25.92;26.39
80500;BME280;69823;54.120;-4.710;2023-07-16T07:12:47;98543.53;;;25.77;26.68
80500;BME280;69823;54.120;-4.710;2023-07-16T07:15:13;98551.61;;;25.29;26.50
80500;BME280;69823;54.120;-4.710;2023-07-16T07:17:39;98550.14;;;25.40;26.29
80500;BME280;69823;54.120;-4.710;2023-07-16T07:20:05;98554.39;;;25.90;26.04
80500;BME280;69823;54.120;-4.710;2023-07-16T07:22:30;98564.20;;;25.74;25.93
80500;BME280;69823;54.120;-4.710;2023-07-16T07:24:56;98564.78;;;25.97;26.00
80500;BME280;69823;54.120;-4.710;2023-07-16T07:27:21;98565.42;;;25.97;25.97
80500;BME280;69823;54.120;-4.710;2023-07-16T07:29:47;98563.81;;;25.21;27.15
80500;BME280;69823;54.120;-4.710;2023-07-16T07:32:13;98570.86;;;25.61;27.19
80500;BME280;69823;54.120;-4.710;2023-07-16T07:34:39;98576.61;;;25.45;26.88
80500;BME280;69823;54.120;-4.710;2023-07-16T07:37:05;98583.81;;;24.85;27.86
80500;BME280;69823;54.120;-4.710;2023-07-16T07:39:30;98589.74;;;25.44;26.91
80500;BME280;69823;54.120;-4.710;2023-07-16T07:41:56;98596.33;;;25.19;26.86
80500;BME280;69823;54.120;-4.710;2023-07-16T07:44:22;98599.10;;;25.59;26.48
80500;BME280;69823;54.120;-4.710;2023-07-16T07:46:47;98604.57;;;25.86;26.37
80500;BME280;69823;54.120;-4.710;2023-07-16T07:49:13;98610.03;;;25.62;26.53
80500;BME280;69823;54.120;-4.710;2023-07-16T07:51:39;98614.02;;;25.55;26.17
80500;BME280;69823;54.120;-4.710;2023-07-16T07:54:05;98609.34;;;25.64;26.42
80500;BME280;69823;54.120;-4.710;2023-07-16T07:56:30;98615.39;;;25.99;26.21
80500;BME280;69823;54.120;-4.710;2023-07-16T07:58:56;98615.46;;;25.74;26.30
80500;BME280;69823;54.120;-4.710;2023-07-16T08:01:22;98616.41;;;25.38;26.96
80500;BME280;69823;54.120;-4.710;2023-07-16T08:03:48;98622.88;;;25.40;26.62
80500;BME280;69823;54.120;-4.710;2023-07-16T08:06:13;98626.29;;;25.74;26.22
80500;BME280;69823;54.120;-4.710;2023-07-16T08:08:39;98627.57;;;25.43;27.17
80500;BME280;69823;54.120;-4.710;2023-07-16T08:11:05;98631.71;;;25.73;26.24
80500;BME280;69823;54.120;-4.710;2023-07-16T08:13:31;98640.26;;;25.77;26.25
80500;BME280;69823;54.120;-4.710;2023-07-16T08:15:56;98640.95;;;25.73;26.20
80500;BME280;69823;54.120;-4.710;2023-07-16T08:18:22;98651.07;;;25.75;26.21
80500;BME280;69823;54.120;-4.710;2023-07-16T08:20:48;98647.17;;;25.79;26.39
80500;BME280;69823;54.120;-4.710;2023-07-16T08:23:14;98651.79;;;25.81;26.55
80500;BME280;69823;54.120;-4.710;2023-07-16T08:25:39;98658.17;;;25.72;26.22
80500;BME280;69823;54.120;-4.710;2023-07-16T08:28:05;98661.42;;;25.67;26.61
80500;BME280;69823;54.120;-4.710;2023-07-16T08:30:32;98665.35;;;25.72;26.44
80500;BME280;69823;54.120;-4.710;2023-07-16T08:32:57;98677.90;;;25.75;26.44
80500;BME280;69823;54.120;-4.710;2023-07-16T08:35:22;98678.03;;;25.54;26.57
80500;BME280;69823;54.120;-4.710;2023-07-16T08:37:48;98689.21;;;25.78;26.60
80500;BME280;69823;54.120;-4.710;2023-07-16T08:40:14;98691.80;;;25.56;26.39
80500;BME280;69823;54.120;-4.710;2023-07-16T08:42:40;98694.17;;;25.70;26.76
80500;BME280;69823;54.120;-4.710;2023-07-16T08:45:07;98696.20;;;25.43;26.66
80500;BME280;69823;54.120;-4.710;2023-07-16T08:47:31;98699.45;;;25.55;27.06
80500;BME280;69823;54.120;-4.710;2023-07-16T08:49:57;98696.41;;;25.36;27.07
80500;BME280;69823;54.120;-4.710;2023-07-16T08:52:23;98702.70;;;25.77;26.77
80500;BME280;69823;54.120;-4.710;2023-07-16T08:54:49;98698.76;;;25.66;26.72
80500;BME280;69823;54.120;-4.710;2023-07-16T08:57:14;98701.60;;;25.58;26.72
80500;BME280;69823;54.120;-4.710;2023-07-16T08:59:40;98704.43;;;25.58;26.94
80500;BME280;69823;54.120;-4.710;2023-07-16T09:02:06;98704.91;;;25.64;26.88
80500;BME280;69823;54.120;-4.710;2023-07-16T09:04:32;98714.22;;;25.97;26.44
80500;BME280;69823;54.120;-4.710;2023-07-16T09:06:58;98716.32;;;25.54;26.94
80500;BME280;69823;54.120;-4.710;2023-07-16T09:09:23;98715.55;;;25.55;26.83
80500;BME280;69823;54.120;-4.710;2023-07-16T09:11:49;98720.60;;;25.91;26.49
80500;BME280;69823;54.120;-4.710;2023-07-16T09:14:16;98729.54;;;25.39;27.08
80500;BME280;69823;54.120;-4.710;2023-07-16T09:16:40;98731.36;;;25.48;27.11
80500;BME280;69823;54.120;-4.710;2023-07-16T09:19:09;98746.37;;;25.41;27.20
80500;BME280;69823;54.120;-4.710;2023-07-16T09:21:32;98748.10;;;25.32;26.79
80500;BME280;69823;54.120;-4.710;2023-07-16T09:23:58;98746.67;;;25.52;27.10
80500;BME280;69823;54.120;-4.710;2023-07-16T09:26:23;98748.46;;;25.51;27.13
80500;BME280;69823;54.120;-4.710;2023-07-16T09:28:49;98752.77;;;25.65;26.76
80500;BME280;69823;54.120;-4.710;2023-07-16T09:31:15;98754.05;;;25.61;26.94
80500;BME280;69823;54.120;-4.710;2023-07-16T09:33:41;98759.88;;;25.51;27.08
80500;BME280;69823;54.120;-4.710;2023-07-16T09:36:07;98759.04;;;25.34;27.53
80500;BME280;69823;54.120;-4.710;2023-07-16T09:38:33;98760.78;;;25.61;26.73
80500;BME280;69823;54.120;-4.710;2023-07-16T09:40:59;98766.78;;;25.32;26.69
80500;BME280;69823;54.120;-4.710;2023-07-16T09:43:23;98763.29;;;25.60;26.88
80500;BME280;69823;54.120;-4.710;2023-07-16T09:45:49;98769.21;;;25.74;26.53
80500;BME280;69823;54.120;-4.710;2023-07-16T09:48:15;98772.35;;;25.67;26.88
80500;BME280;69823;54.120;-4.710;2023-07-16T09:50:48;98777.34;;;25.66;26.76
80500;BME280;69823;54.120;-4.710;2023-07-16T09:53:07;98784.70;;;25.45;27.00
80500;BME280;69823;54.120;-4.710;2023-07-16T09:55:34;98791.62;;;25.48;26.92
80500;BME280;69823;54.120;-4.710;2023-07-16T09:58:00;98788.13;;;25.68;26.95
80500;BME280;69823;54.120;-4.710;2023-07-16T10:00:25;98796.24;;;25.71;26.73
80500;BME280;69823;54.120;-4.710;2023-07-16T10:02:51;98800.80;;;25.68;26.99
80500;BME280;69823;54.120;-4.710;2023-07-16T10:05:16;98804.15;;;25.58;26.95
80500;BME280;69823;54.120;-4.710;2023-07-16T10:07:41;98808.38;;;25.53;27.66
80500;BME280;69823;54.120;-4.710;2023-07-16T10:10:08;98811.92;;;25.33;27.65
80500;BME280;69823;54.120;-4.710;2023-07-16T10:12:32;98812.18;;;25.62;27.56
80500;BME280;69823;54.120;-4.710;2023-07-16T10:14:58;98815.17;;;25.65;27.63
80500;BME280;69823;54.120;-4.710;2023-07-16T10:17:24;98820.84;;;25.64;27.64
80500;BME280;69823;54.120;-4.710;2023-07-16T10:19:51;98815.33;;;25.66;27.46
80500;BME280;69823;54.120;-4.710;2023-07-16T10:22:14;98823.04;;;25.77;27.06
80500;BME280;69823;54.120;-4.710;2023-07-16T10:24:40;98822.15;;;25.71;27.50
80500;BME280;69823;54.120;-4.710;2023-07-16T10:27:06;98827.77;;;25.97;27.48
80500;BME280;69823;54.120;-4.710;2023-07-16T10:29:32;98830.35;;;26.03;27.46
80500;BME280;69823;54.120;-4.710;2023-07-16T10:31:58;98836.96;;;25.78;27.27
80500;BME280;69823;54.120;-4.710;2023-07-16T10:34:23;98836.79;;;25.72;27.04
80500;BME280;69823;54.120;-4.710;2023-07-16T10:36:49;98842.67;;;25.69;27.35
80500;BME280;69823;54.120;-4.710;2023-07-16T10:39:15;98846.85;;;25.73;27.12
80500;BME280;69823;54.120;-4.710;2023-07-16T10:41:41;98850.57;;;25.54;26.73
80500;BME280;69823;54.120;-4.710;2023-07-16T10:44:08;98852.77;;;25.56;27.00
80500;BME280;69823;54.120;-4.710;2023-07-16T10:46:32;98856.90;;;25.65;26.74
80500;BME280;69823;54.120;-4.710;2023-07-16T10:48:58;98862.11;;;25.86;26.84
80500;BME280;69823;54.120;-4.710;2023-07-16T10:51:25;98863.76;;;25.83;26.89
80500;BME280;69823;54.120;-4.710;2023-07-16T10:53:48;98865.94;;;25.95;26.68
80500;BME280;69823;54.120;-4.710;2023-07-16T10:56:14;98868.63;;;25.67;26.99
80500;BME280;69823;54.120;-4.710;2023-07-16T10:58:40;98869.17;;;25.56;26.82
80500;BME280;69823;54.120;-4.710;2023-07-16T11:01:08;98863.09;;;25.83;26.89
80500;BME280;69823;54.120;-4.710;2023-07-16T11:03:31;98868.84;;;25.54;26.67
80500;BME280;69823;54.120;-4.710;2023-07-16T11:05:57;98873.70;;;25.89;26.75
80500;BME280;69823;54.120;-4.710;2023-07-16T11:08:23;98875.09;;;25.89;26.65
80500;BME280;69823;54.120;-4.710;2023-07-16T11:10:54;98875.08;;;25.86;26.71
80500;BME280;69823;54.120;-4.710;2023-07-16T11:13:14;98883.31;;;25.58;26.85
80500;BME280;69823;54.120;-4.710;2023-07-16T11:15:40;98886.37;;;25.89;26.55
80500;BME280;69823;54.120;-4.710;2023-07-16T11:18:06;98886.99;;;25.86;26.31
80500;BME280;69823;54.120;-4.710;2023-07-16T11:20:31;98891.59;;;25.87;26.75
80500;BME280;69823;54.120;-4.710;2023-07-16T11:22:59;98892.91;;;25.88;26.57
80500;BME280;69823;54.120;-4.710;2023-07-16T11:25:24;98895.06;;;25.94;26.50
80500;BME280;69823;54.120;-4.710;2023-07-16T11:27:54;98894.98;;;25.98;26.59
80500;BME280;69823;54.120;-4.710;2023-07-16T11:30:14;98897.07;;;25.74;26.64
80500;BME280;69823;54.120;-4.710;2023-07-16T11:32:42;98904.86;;;25.82;26.90
80500;BME280;69823;54.120;-4.710;2023-07-16T11:35:07;98906.20;;;25.51;27.55
80500;BME280;69823;54.120;-4.710;2023-07-16T11:37:33;98904.45;;;25.80;26.73
80500;BME280;69823;54.120;-4.710;2023-07-16T11:39:58;98903.10;;;25.67;26.90
80500;BME280;69823;54.120;-4.710;2023-07-16T11:42:23;98909.43;;;25.81;27.09
80500;BME280;69823;54.120;-4.710;2023-07-16T11:44:49;98908.86;;;25.89;27.10
80500;BME280;69823;54.120;-4.710;2023-07-16T11:47:14;98905.15;;;25.67;27.30
80500;BME280;69823;54.120;-4.710;2023-07-16T11:49:40;98907.76;;;25.80;27.30
80500;BME280;69823;54.120;-4.710;2023-07-16T11:52:07;98917.29;;;25.34;27.32
80500;BME280;69823;54.120;-4.710;2023-07-16T11:54:32;98914.08;;;25.65;27.29
80500;BME280;69823;54.120;-4.710;2023-07-16T11:56:57;98915.92;;;25.59;27.31
80500;BME280;69823;54.120;-4.710;2023-07-16T11:59:23;98918.20;;;25.80;27.21
80500;BME280;69823;54.120;-4.710;2023-07-16T12:01:49;98927.07;;;25.82;27.34
80500;BME280;69823;54.120;-4.710;2023-07-16T12:04:15;98924.56;;;25.79;27.39
80500;BME280;69823;54.120;-4.710;2023-07-16T12:06:40;98924.07;;;25.71;27.55
80500;BME280;69823;54.120;-4.710;2023-07-16T12:09:06;98931.66;;;25.78;27.37
80500;BME280;69823;54.120;-4.710;2023-07-16T12:11:32;98927.32;;;25.44;27.42
80500;BME280;69823;54.120;-4.710;2023-07-16T12:13:57;98932.47;;;25.34;27.27
80500;BME280;69823;54.120;-4.710;2023-07-16T12:16:23;98929.10;;;25.61;27.49
80500;BME280;69823;54.120;-4.710;2023-07-16T12:18:49;98932.86;;;25.73;27.11
80500;BME280;69823;54.120;-4.710;2023-07-16T12:21:15;98933.90;;;25.80;27.02
80500;BME280;69823;54.120;-4.710;2023-07-16T12:23:40;98931.75;;;25.83;26.98
80500;BME280;69823;54.120;-4.710;2023-07-16T12:26:06;98937.34;;;25.93;26.96
80500;BME280;69823;54.120;-4.710;2023-07-16T12:28:32;98932.20;;;25.91;26.91
80500;BME280;69823;54.120;-4.710;2023-07-16T12:30:58;98933.15;;;25.90;26.79
80500;BME280;69823;54.120;-4.710;2023-07-16T12:33:23;98941.93;;;25.99;26.79
80500;BME280;69823;54.120;-4.710;2023-07-16T12:35:49;98947.70;;;26.05;26.74
80500;BME280;69823;54.120;-4.710;2023-07-16T12:38:15;98950.97;;;25.72;26.78
80500;BME280;69823;54.120;-4.710;2023-07-16T12:40:41;98953.78;;;25.98;26.83